Time;durP1;ratioP1;P1;durP2;ratioP2;P2;SDS_P1;SDS_P2;PMS_P1;PMS_P2;Temp;Humidity;BMP_temperature;BMP_pressure;BME280_temperature;BME280_humidity;BME280_pressure;Samples;Min_cycle;Max_cycle;Signal;HPM_P1;HPM_P2
2022/08/16 00:00:59;;;;;;;3.17;1.50;;;;;;;33.39;29.86;97374.47;5086249;28;20043;-80
2022/08/16 00:03:26;;;;;;;1.88;1.77;;;;;;;33.57;28.95;97374.00;5085006;28;20032;-80
2022/08/16 00:05:52;;;;;;;1.65;1.55;;;;;;;33.38;29.23;97372.91;5085584;28;20458;-80
2022/08/16 00:08:19;;;;;;;1.23;1.13;;;;;;;32.94;29.66;97379.25;5085660;28;20093;-80
2022/08/16 00:10:45;;;;;;;1.42;1.33;;;;;;;32.64;30.38;97372.41;5089151;28;20039;-80
2022/08/16 00:13:12;;;;;;;1.83;1.70;;;;;;;32.62;30.24;97367.22;5087334;28;20097;-80
2022/08/16 00:15:46;;;;;;;1.45;1.35;;;;;;;32.61;30.96;97365.66;5087098;28;20818;-80
2022/08/16 00:18:13;;;;;;;1.42;1.33;;;;;;;32.77;30.24;97364.16;5086076;28;20032;-80
2022/08/16 00:20:42;;;;;;;1.30;1.20;;;;;;;32.83;29.99;97369.88;5088468;28;20490;-80
2022/08/16 00:23:09;;;;;;;2.92;2.40;;;;;;;32.99;29.61;97367.09;5086918;28;20509;-80
2022/08/16 00:25:35;;;;;;;2.17;1.48;;;;;;;33.04;29.80;97369.22;5086101;28;20028;-80
2022/08/16 00:28:02;;;;;;;2.70;2.38;;;;;;;33.20;30.16;97373.41;5087407;28;20043;-80
2022/08/16 00:30:28;;;;;;;1.60;1.50;;;;;;;33.30;29.62;97366.19;5085321;28;20127;-81
2022/08/16 00:32:57;;;;;;;1.75;1.65;;;;;;;33.16;28.80;97362.28;5086654;28;20032;-80
2022/08/16 00:35:31;;;;;;;2.72;1.67;;;;;;;33.08;28.97;97366.91;5084297;28;20131;-81
2022/08/16 00:37:58;;;;;;;1.35;1.25;;;;;;;32.66;29.60;97364.91;5084947;28;20028;-80
2022/08/16 00:40:45;;;;;;;1.30;1.20;;;;;;;32.83;29.14;97364.19;5085879;28;20123;-79
2022/08/16 00:43:33;;;;;;;1.38;1.27;;;;;;;32.99;29.29;97358.56;5087488;28;20111;-79
2022/08/16 00:46:26;;;;;;;1.90;1.65;;;;;;;33.09;29.26;97357.09;5086751;28;20053;-79
2022/08/16 00:48:53;;;;;;;1.40;1.30;;;;;;;33.08;29.20;97363.28;5089964;28;20426;-79
2022/08/16 00:51:21;;;;;;;1.30;1.20;;;;;;;33.10;28.59;97364.31;5093062;28;20105;-79
2022/08/16 00:53:48;;;;;;;1.17;1.08;;;;;;;32.80;29.08;97356.69;5087704;28;20043;-79
2022/08/16 00:56:20;;;;;;;2.50;1.20;;;;;;;32.86;29.40;97360.34;5083301;28;20036;-79
2022/08/16 00:58:47;;;;;;;1.35;1.20;;;;;;;32.73;29.35;97370.13;5089769;28;20052;-79
2022/08/16 01:01:15;;;;;;;1.58;1.48;;;;;;;32.91;28.66;97377.41;5089832;28;20032;-80
2022/08/16 01:03:45;;;;;;;1.40;1.30;;;;;;;32.66;28.88;97375.50;5087844;28;20032;-79
2022/08/16 01:06:13;;;;;;;1.45;1.35;;;;;;;32.44;29.60;97373.28;5087059;28;20043;-80
2022/08/16 01:08:41;;;;;;;1.50;1.40;;;;;;;32.50;29.27;97365.63;5088902;28;20039;-79
2022/08/16 01:11:08;;;;;;;1.50;1.40;;;;;;;32.59;29.16;97375.97;5090904;28;20039;-80
2022/08/16 01:13:36;;;;;;;1.95;1.60;;;;;;;32.77;29.41;97378.38;5083084;28;20040;-80
2022/08/16 01:16:11;;;;;;;2.10;1.90;;;;;;;32.58;29.66;97374.44;5091106;28;20028;-80
2022/08/16 01:18:45;;;;;;;1.55;1.45;;;;;;;31.49;30.47;97379.50;5089025;28;20044;-80
2022/08/16 01:21:20;;;;;;;1.40;1.30;;;;;;;31.70;30.36;97374.53;5105336;28;20043;-79
2022/08/16 01:24:01;;;;;;;1.50;1.40;;;;;;;32.10;30.71;97374.38;5085609;28;20064;-79
2022/08/16 01:26:32;;;;;;;1.52;1.42;;;;;;;32.40;29.96;97383.34;5087416;28;20039;-80
2022/08/16 01:29:03;;;;;;;3.63;1.45;;;;;;;32.82;30.08;97374.78;5090419;28;20044;-80
2022/08/16 01:31:29;;;;;;;;;;;;;;;32.75;29.23;97378.13;5086479;28;20047;-80
2022/08/16 01:33:55;;;;;;;1.20;1.10;;;;;;;32.39;29.31;97373.28;5090997;28;19930;-81
2022/08/16 01:36:22;;;;;;;1.58;1.48;;;;;;;32.32;29.92;97371.69;5091866;28;20036;-80
2022/08/16 01:38:50;;;;;;;1.90;1.38;;;;;;;32.56;29.65;97383.47;5091414;28;20032;-79
2022/08/16 01:41:23;;;;;;;1.92;1.45;;;;;;;32.89;29.47;97376.38;5092547;28;20456;-79
2022/08/16 01:43:51;;;;;;;1.40;1.30;;;;;;;32.94;29.25;97369.94;5092090;28;20034;-80
2022/08/16 01:46:22;;;;;;;1.98;1.30;;;;;;;32.93;28.96;97369.13;5092237;28;20062;-80
2022/08/16 01:48:55;;;;;;;2.10;1.88;;;;;;;33.04;29.07;97355.00;5089967;28;20031;-79
2022/08/16 01:51:22;;;;;;;2.95;1.83;;;;;;;33.15;28.67;97352.19;5093946;28;20130;-80
2022/08/16 01:53:48;;;;;;;2.28;1.77;;;;;;;33.29;28.57;97361.78;5091174;28;20041;-80
2022/08/16 01:56:15;;;;;;;3.33;2.05;;;;;;;33.29;28.78;97365.41;5090975;28;20024;-80
2022/08/16 01:58:41;;;;;;;1.88;1.70;;;;;;;33.35;28.48;97368.28;5090959;28;20495;-80
2022/08/16 02:01:07;;;;;;;1.77;1.40;;;;;;;33.47;28.71;97361.28;5090849;28;20511;-80
2022/08/16 02:03:33;;;;;;;3.63;1.75;;;;;;;33.38;28.63;97358.69;5088363;28;20089;-80
2022/08/16 02:05:59;;;;;;;1.60;1.50;;;;;;;33.14;28.73;97370.53;5089229;28;20033;-80
2022/08/16 02:08:25;;;;;;;2.58;2.38;;;;;;;33.11;28.91;97367.94;5091615;28;20032;-80
2022/08/16 02:10:53;;;;;;;1.85;1.70;;;;;;;33.18;28.83;97376.00;5088917;28;20039;-80
2022/08/16 02:13:19;;;;;;;2.33;2.13;;;;;;;33.16;28.74;97379.34;5088060;28;20077;-80
2022/08/16 02:15:46;;;;;;;3.40;1.40;;;;;;;33.12;28.74;97373.13;5086077;28;20116;-80
2022/08/16 02:18:13;;;;;;;2.08;1.60;;;;;;;33.21;28.12;97372.88;5085516;28;20056;-80
2022/08/16 02:20:41;;;;;;;1.90;1.80;;;;;;;32.83;28.28;97367.03;5089929;28;20039;-80
2022/08/16 02:23:08;;;;;;;1.60;1.50;;;;;;;32.51;28.78;97370.00;5089786;28;20036;-80
2022/08/16 02:25:35;;;;;;;1.60;1.42;;;;;;;32.65;28.45;97371.13;5089579;28;20039;-80
2022/08/16 02:28:01;;;;;;;1.73;1.63;;;;;;;32.39;28.57;97370.44;5088335;28;20044;-80
2022/08/16 02:30:30;;;;;;;1.45;1.35;;;;;;;32.18;29.18;97366.16;5089462;28;20064;-80
2022/08/16 02:32:57;;;;;;;1.83;1.60;;;;;;;32.17;29.18;97364.59;5089110;28;20114;-79
2022/08/16 02:35:24;;;;;;;1.30;1.20;;;;;;;31.94;29.05;97372.16;5090485;28;20178;-80
2022/08/16 02:37:52;;;;;;;1.25;1.15;;;;;;;31.81;29.46;97371.81;5086230;28;20110;-80
2022/08/16 02:40:20;;;;;;;1.40;1.30;;;;;;;31.69;29.11;97368.09;5089783;28;20036;-80
2022/08/16 02:42:47;;;;;;;2.58;1.83;;;;;;;31.69;29.30;97375.84;5088391;28;20101;-80
2022/08/16 02:45:14;;;;;;;4.75;1.35;;;;;;;31.86;29.20;97369.00;5090022;28;20114;-80
2022/08/16 02:47:40;;;;;;;1.50;1.40;;;;;;;32.12;29.15;97366.13;5084292;28;20036;-79
2022/08/16 02:50:08;;;;;;;1.75;1.30;;;;;;;32.38;28.25;97368.84;5091021;28;20044;-80
2022/08/16 02:52:35;;;;;;;2.13;1.50;;;;;;;32.54;28.43;97371.03;5088965;28;20554;-80
2022/08/16 02:55:01;;;;;;;0.98;0.95;;;;;;;32.42;28.26;97375.06;5089380;28;20069;-80
2022/08/16 02:57:27;;;;;;;1.30;1.20;;;;;;;32.09;28.60;97379.25;5089870;28;20051;-80
2022/08/16 02:59:53;;;;;;;1.48;1.38;;;;;;;32.08;28.46;97372.03;5087313;28;20502;-80
2022/08/16 03:02:19;;;;;;;1.23;1.13;;;;;;;32.07;28.91;97373.31;5084836;28;20101;-80
2022/08/16 03:04:45;;;;;;;1.45;1.35;;;;;;;31.50;29.46;97366.09;5085295;28;20032;-80
2022/08/16 03:07:13;;;;;;;2.75;1.40;;;;;;;31.23;30.12;97375.84;5087596;28;20484;-80
2022/08/16 03:09:40;;;;;;;1.40;1.30;;;;;;;31.41;30.26;97381.97;5087003;28;20080;-80
2022/08/16 03:12:06;;;;;;;1.75;1.30;;;;;;;31.90;29.21;97383.72;5085491;28;20036;-80
2022/08/16 03:14:33;;;;;;;1.25;1.15;;;;;;;32.35;28.35;97378.41;5089068;28;20129;-80
2022/08/16 03:16:59;;;;;;;3.33;1.60;;;;;;;32.56;28.04;97377.00;5088812;28;20043;-80
2022/08/16 03:19:27;;;;;;;1.92;1.52;;;;;;;32.74;27.82;97377.34;5089276;28;20066;-80
2022/08/16 03:21:53;;;;;;;1.50;1.40;;;;;;;32.77;27.63;97383.31;5088072;28;20036;-81
2022/08/16 03:24:19;;;;;;;1.38;1.27;;;;;;;32.81;27.65;97381.78;5088341;28;20039;-80
2022/08/16 03:26:45;;;;;;;1.45;1.35;;;;;;;32.82;27.06;97374.78;5083955;28;20435;-80
2022/08/16 03:29:11;;;;;;;1.42;1.33;;;;;;;32.78;27.32;97382.81;5091132;28;20031;-80
2022/08/16 03:31:38;;;;;;;3.83;1.20;;;;;;;32.74;27.54;97388.72;5092180;28;20514;-80
2022/08/16 03:34:04;;;;;;;3.03;1.40;;;;;;;32.81;27.45;97384.63;5090832;28;20032;-81
2022/08/16 03:36:30;;;;;;;1.30;1.20;;;;;;;32.83;27.20;97395.47;5090988;28;20032;-80
2022/08/16 03:38:56;;;;;;;1.17;1.08;;;;;;;32.93;27.21;97397.59;5091858;28;20028;-80
2022/08/16 03:41:22;;;;;;;1.40;1.30;;;;;;;33.02;27.09;97397.41;5090785;28;20124;-80
2022/08/16 03:43:49;;;;;;;1.60;1.27;;;;;;;33.12;26.57;97389.41;5080875;28;20036;-80
2022/08/16 03:46:15;;;;;;;1.38;1.27;;;;;;;33.10;27.06;97398.47;5092588;28;20040;-80
2022/08/16 03:48:41;;;;;;;5.95;1.52;;;;;;;33.12;26.62;97386.56;5090183;28;20073;-80
2022/08/16 03:51:11;;;;;;;1.40;1.30;;;;;;;32.45;27.37;97396.81;5090266;28;20442;-79
2022/08/16 03:53:38;;;;;;;1.30;1.10;;;;;;;32.49;27.28;97403.03;5093104;28;20036;-80
2022/08/16 03:56:06;;;;;;;1.95;1.75;;;;;;;32.81;26.99;97398.84;5089884;28;20035;-81
2022/08/16 03:58:33;;;;;;;1.10;1.10;;;;;;;32.73;27.40;97400.59;5089727;28;20093;-80
2022/08/16 04:00:59;;;;;;;1.98;1.73;;;;;;;32.56;27.36;97403.34;5092942;28;20507;-80
2022/08/16 04:03:25;;;;;;;1.38;1.27;;;;;;;32.58;27.57;97400.03;5093193;28;20082;-80
2022/08/16 04:05:51;;;;;;;1.30;1.20;;;;;;;32.31;27.85;97401.38;5091354;28;20054;-81
2022/08/16 04:08:20;;;;;;;1.23;1.13;;;;;;;32.34;28.45;97394.69;5092605;28;20027;-81
2022/08/16 04:10:47;;;;;;;1.45;1.25;;;;;;;32.62;27.67;97401.34;5089311;28;20025;-80
2022/08/16 04:13:14;;;;;;;1.08;1.00;;;;;;;32.95;27.34;97403.56;5091709;28;20446;-80
2022/08/16 04:15:40;;;;;;;1.05;0.95;;;;;;;33.20;26.72;97404.69;5091267;28;20047;-80
2022/08/16 04:18:08;;;;;;;1.70;1.60;;;;;;;32.42;27.94;97409.97;5090212;28;20028;-81
2022/08/16 04:20:34;;;;;;;1.48;1.38;;;;;;;31.81;29.11;97409.47;5092002;28;20484;-80
2022/08/16 04:23:00;;;;;;;1.30;1.20;;;;;;;31.98;28.84;97407.59;5091009;28;20051;-81
2022/08/16 04:25:27;;;;;;;1.45;1.35;;;;;;;31.66;29.20;97417.34;5088248;28;20062;-80
2022/08/16 04:27:54;;;;;;;1.38;1.27;;;;;;;31.32;29.73;97419.03;5089964;28;20039;-80
2022/08/16 04:30:21;;;;;;;1.45;1.35;;;;;;;31.23;29.69;97412.72;5091841;28;20032;-81
2022/08/16 04:32:47;;;;;;;1.13;1.10;;;;;;;31.36;29.60;97413.94;5089614;28;20036;-82
2022/08/16 04:35:16;;;;;;;1.33;1.23;;;;;;;31.88;29.19;97416.78;5090984;28;20040;-80
2022/08/16 04:37:46;;;;;;;1.10;0.95;;;;;;;32.40;28.51;97411.75;5090367;28;20032;-80
2022/08/16 04:40:14;;;;;;;0.90;0.80;;;;;;;32.09;28.53;97410.50;5090719;28;20032;-79
2022/08/16 04:42:41;;;;;;;1.02;0.93;;;;;;;32.23;28.51;97408.03;5088988;28;20032;-80
2022/08/16 04:45:10;;;;;;;1.48;1.23;;;;;;;32.30;28.26;97407.56;5091711;28;20399;-80
2022/08/16 04:47:36;;;;;;;1.33;1.00;;;;;;;31.76;29.48;97415.91;5090849;28;20036;-81
2022/08/16 04:50:14;;;;;;;1.05;0.98;;;;;;;31.88;29.60;97413.94;5089042;28;20044;-80
2022/08/16 04:52:43;;;;;;;1.20;1.10;;;;;;;32.30;29.18;97419.69;5087278;28;20213;-80
2022/08/16 04:55:13;;;;;;;1.00;1.00;;;;;;;32.70;28.40;97415.84;5089725;28;20070;-80
2022/08/16 04:57:39;;;;;;;0.90;0.90;;;;;;;32.65;28.55;97408.84;5091642;28;20031;-80
2022/08/16 05:00:12;;;;;;;1.25;0.88;;;;;;;32.89;29.19;97421.88;5092716;28;20047;-80
2022/08/16 05:02:39;;;;;;;1.65;0.80;;;;;;;33.43;28.19;97417.69;5086113;28;20407;-80
2022/08/16 05:05:06;;;;;;;1.10;1.00;;;;;;;33.46;28.27;97413.84;5091234;28;20032;-80
2022/08/16 05:07:32;;;;;;;1.25;1.15;;;;;;;33.46;28.31;97418.75;5090852;28;20035;-80
2022/08/16 05:09:59;;;;;;;1.20;1.00;;;;;;;33.34;28.75;97427.25;5091594;28;20028;-81
2022/08/16 05:12:25;;;;;;;1.00;1.00;;;;;;;33.09;29.04;97422.53;5092745;28;20044;-81
2022/08/16 05:14:51;;;;;;;1.33;1.02;;;;;;;32.99;29.62;97426.06;5094563;28;20028;-80
2022/08/16 05:17:17;;;;;;;1.02;0.93;;;;;;;32.85;30.22;97427.03;5094313;28;20024;-81
2022/08/16 05:19:44;;;;;;;1.40;1.25;;;;;;;33.00;30.10;97428.38;5094675;28;20028;-80
2022/08/16 05:22:10;;;;;;;1.67;0.90;;;;;;;33.68;30.08;97430.97;5094421;28;20130;-80
2022/08/16 05:24:36;;;;;;;1.05;1.02;;;;;;;34.46;29.14;97431.00;5094180;28;20106;-80
2022/08/16 05:27:02;;;;;;;1.33;1.23;;;;;;;35.04;28.94;97432.72;5094142;28;20039;-81
2022/08/16 05:29:28;;;;;;;1.30;1.20;;;;;;;35.37;28.33;97431.78;5093949;28;20090;-80
2022/08/16 05:31:54;;;;;;;1.00;1.00;;;;;;;35.01;28.52;97436.56;5093721;28;20115;-80
2022/08/16 05:34:21;;;;;;;1.63;1.15;;;;;;;34.84;29.29;97435.09;5092254;28;20529;-80
2022/08/16 05:36:48;;;;;;;1.40;1.20;;;;;;;35.19;28.91;97436.03;5093608;28;20032;-81
2022/08/16 05:39:14;;;;;;;1.30;1.20;;;;;;;35.55;28.25;97436.88;5094042;28;20042;-81
2022/08/16 05:41:40;;;;;;;2.60;1.20;;;;;;;35.12;28.45;97441.50;5093931;28;20023;-81
2022/08/16 05:44:06;;;;;;;1.00;1.00;;;;;;;34.52;29.35;97438.28;5093591;28;20051;-80
2022/08/16 05:46:33;;;;;;;1.90;1.10;;;;;;;34.44;29.67;97440.09;5080109;28;20043;-81
2022/08/16 05:48:59;;;;;;;1.10;1.00;;;;;;;34.66;29.80;97442.91;5078424;28;20571;-82
2022/08/16 05:51:26;;;;;;;1.33;1.17;;;;;;;34.90;29.13;97445.19;5083435;28;20056;-81
2022/08/16 05:53:52;;;;;;;1.30;1.17;;;;;;;34.99;29.22;97447.75;5073334;28;20094;-80
2022/08/16 05:56:18;;;;;;;1.40;1.30;;;;;;;35.33;28.96;97443.50;5088710;28;20036;-81
2022/08/16 05:58:44;;;;;;;2.90;1.38;;;;;;;35.52;28.40;97437.97;5093081;28;20482;-80
2022/08/16 06:01:10;;;;;;;2.83;1.33;;;;;;;35.33;28.30;97431.28;5092958;28;20527;-80
2022/08/16 06:03:37;;;;;;;1.30;1.20;;;;;;;35.19;29.29;97432.38;5088843;28;20173;-80
2022/08/16 06:06:03;;;;;;;1.65;1.48;;;;;;;35.43;29.44;97433.28;5092785;28;20086;-80
2022/08/16 06:08:29;;;;;;;1.58;1.48;;;;;;;35.89;28.66;97435.38;5093491;28;20028;-79
2022/08/16 06:10:56;;;;;;;1.98;1.73;;;;;;;36.34;28.99;97438.66;5093425;28;20534;-79
2022/08/16 06:13:22;;;;;;;1.70;1.52;;;;;;;36.71;28.38;97435.97;5081956;28;20505;-79
2022/08/16 06:15:50;;;;;;;1.40;1.30;;;;;;;36.99;27.82;97429.19;5090413;28;20059;-79
2022/08/16 06:18:18;;;;;;;1.40;1.30;;;;;;;37.15;28.19;97436.78;5093233;28;20035;-79
2022/08/16 06:20:44;;;;;;;1.45;1.30;;;;;;;36.98;28.27;97445.59;5093936;28;20105;-79
2022/08/16 06:23:10;;;;;;;1.85;1.40;;;;;;;36.80;28.93;97440.56;5093216;28;20129;-80
2022/08/16 06:25:36;;;;;;;1.42;1.33;;;;;;;37.00;28.58;97450.75;5093419;28;20391;-80
2022/08/16 06:28:04;;;;;;;1.50;1.40;;;;;;;37.23;28.31;97452.03;5093331;28;20054;-80
2022/08/16 06:30:31;;;;;;;1.52;1.42;;;;;;;37.44;28.32;97450.22;5092531;28;20381;-79
2022/08/16 06:32:58;;;;;;;2.30;1.30;;;;;;;37.65;27.27;97456.19;5092331;28;20035;-80
2022/08/16 06:35:24;;;;;;;1.65;1.55;;;;;;;36.88;29.45;97447.22;5091552;28;20038;-79
2022/08/16 06:37:50;;;;;;;1.40;1.30;;;;;;;35.79;30.46;97459.84;5092744;28;20111;-80
2022/08/16 06:40:16;;;;;;;1.50;1.40;;;;;;;36.03;30.60;97462.84;5093057;28;20483;-79
2022/08/16 06:42:43;;;;;;;1.20;1.10;;;;;;;36.67;29.20;97455.50;5093170;28;20059;-79
2022/08/16 06:45:09;;;;;;;1.60;1.48;;;;;;;37.14;28.76;97464.66;5092633;28;20058;-79
2022/08/16 06:47:35;;;;;;;1.48;1.38;;;;;;;37.16;27.84;97458.38;5091300;28;20047;-80
2022/08/16 06:50:01;;;;;;;1.45;1.35;;;;;;;37.24;27.88;97462.97;5090521;28;20500;-79
2022/08/16 06:52:35;;;;;;;1.73;1.63;;;;;;;37.06;27.60;97468.66;5091756;28;20060;-79
2022/08/16 06:55:03;;;;;;;2.35;1.73;;;;;;;36.42;28.71;97468.22;5073075;28;20036;-79
2022/08/16 06:57:29;;;;;;;1.60;1.50;;;;;;;36.69;28.70;97461.47;5076479;28;20476;-80
2022/08/16 06:59:55;;;;;;;1.50;1.40;;;;;;;37.17;29.13;97460.72;5083791;28;20036;-80
2022/08/16 07:02:21;;;;;;;1.65;1.55;;;;;;;37.28;28.14;97463.44;5079445;28;20032;-80
2022/08/16 07:04:47;;;;;;;2.35;2.15;;;;;;;37.30;27.72;97460.81;5093349;28;20067;-80
2022/08/16 07:07:13;;;;;;;1.98;1.80;;;;;;;37.45;28.03;97468.97;5088404;28;20036;-80
2022/08/16 07:09:40;;;;;;;1.70;1.60;;;;;;;37.68;27.24;97472.31;5096964;28;20040;-80
2022/08/16 07:12:06;;;;;;;2.45;1.77;;;;;;;37.72;27.88;97475.63;5097059;28;20527;-79
2022/08/16 07:14:33;;;;;;;9.48;2.28;;;;;;;37.93;28.55;97476.66;5096935;28;20031;-80
2022/08/16 07:17:00;;;;;;;1.50;1.40;;;;;;;38.13;27.98;97478.97;5097117;28;20024;-80
2022/08/16 07:19:31;;;;;;;2.05;1.85;;;;;;;38.31;28.36;97483.13;5096414;28;20480;-80
2022/08/16 07:21:57;;;;;;;1.75;1.63;;;;;;;38.24;28.04;97486.59;5096620;28;20028;-80
2022/08/16 07:24:23;;;;;;;1.40;1.30;;;;;;;38.54;27.99;97487.94;5096406;28;20032;-79
2022/08/16 07:26:49;;;;;;;1.92;1.70;;;;;;;38.87;27.42;97491.53;5096684;28;20044;-79
2022/08/16 07:29:15;;;;;;;2.72;1.73;;;;;;;38.90;26.23;97491.22;5096361;28;20078;-80
2022/08/16 07:31:41;;;;;;;3.28;1.80;;;;;;;38.88;26.54;97493.88;5095988;28;20043;-79
2022/08/16 07:34:07;;;;;;;3.42;2.35;;;;;;;38.84;26.73;97492.66;5095343;28;20471;-81
2022/08/16 07:36:34;;;;;;;1.90;1.80;;;;;;;38.46;27.14;97501.38;5095483;28;20036;-80
2022/08/16 07:39:00;;;;;;;2.10;1.88;;;;;;;38.20;29.76;97501.25;5078527;28;20032;-80
2022/08/16 07:41:26;;;;;;;1.90;1.80;;;;;;;37.66;27.99;97490.06;5096497;28;20028;-80
2022/08/16 07:43:52;;;;;;;2.92;2.72;;;;;;;38.00;27.95;97487.50;5096307;28;20046;-79
2022/08/16 07:46:18;;;;;;;2.00;1.80;;;;;;;37.58;28.32;97491.19;5095108;28;20036;-80
2022/08/16 07:48:44;;;;;;;1.85;1.75;;;;;;;37.46;29.32;97495.53;5092459;28;20117;-80
2022/08/16 07:51:10;;;;;;;2.20;2.00;;;;;;;37.73;27.61;97491.50;5095544;28;20036;-79
2022/08/16 07:53:37;;;;;;;3.38;1.80;;;;;;;37.41;28.73;97493.53;5094373;28;20032;-79
2022/08/16 07:56:04;;;;;;;2.58;2.15;;;;;;;37.48;28.37;97499.41;5095626;28;20040;-79
2022/08/16 07:58:32;;;;;;;1.80;1.70;;;;;;;37.86;28.00;97498.13;5096030;28;20040;-80
2022/08/16 08:01:00;;;;;;;3.53;1.88;;;;;;;38.24;28.17;97498.06;5094493;28;20128;-79
2022/08/16 08:03:26;;;;;;;2.13;2.03;;;;;;;38.61;27.55;97489.38;5094875;28;20036;-80
2022/08/16 08:05:53;;;;;;;1.98;1.83;;;;;;;38.59;26.78;97486.28;5095228;28;20029;-80
2022/08/16 08:08:19;;;;;;;1.58;1.48;;;;;;;38.55;26.48;97488.72;5095905;28;20129;-79
2022/08/16 08:10:45;;;;;;;2.00;1.90;;;;;;;38.00;28.39;97491.13;5095505;28;20024;-80
2022/08/16 08:13:14;;;;;;;1.70;1.60;;;;;;;37.14;30.25;97499.00;5095154;28;20036;-79
2022/08/16 08:15:40;;;;;;;2.65;2.45;;;;;;;37.65;27.96;97490.56;5096021;28;20028;-79
2022/08/16 08:18:06;;;;;;;2.30;2.20;;;;;;;37.45;27.74;97491.13;5095064;28;20036;-79
2022/08/16 08:20:33;;;;;;;2.38;2.28;;;;;;;37.34;29.07;97492.75;5095884;28;20028;-79
2022/08/16 08:23:00;;;;;;;2.55;2.35;;;;;;;37.53;27.43;97486.34;5095429;28;20472;-80
2022/08/16 08:25:28;;;;;;;2.78;2.58;;;;;;;36.64;29.43;97496.63;5095508;28;20596;-79
2022/08/16 08:27:54;;;;;;;3.40;3.10;;;;;;;37.45;29.35;97502.56;5095281;28;20050;-79
2022/08/16 08:30:20;;;;;;;2.92;2.45;;;;;;;37.52;26.67;97490.50;5095290;28;20034;-80
2022/08/16 08:32:47;;;;;;;3.30;2.67;;;;;;;37.64;27.49;97497.63;5094810;28;20098;-80
2022/08/16 08:35:13;;;;;;;3.17;2.33;;;;;;;37.56;28.24;97494.59;5093505;28;20035;-80
2022/08/16 08:37:39;;;;;;;2.42;2.22;;;;;;;37.21;32.42;97495.53;5094945;28;20442;-80
2022/08/16 08:40:08;;;;;;;2.45;2.25;;;;;;;37.28;30.55;97500.66;5095378;28;20054;-80
2022/08/16 08:42:35;;;;;;;3.00;2.80;;;;;;;37.21;30.74;97498.41;5095410;28;20427;-79
2022/08/16 08:45:02;;;;;;;2.88;2.40;;;;;;;37.68;27.54;97495.22;5095471;28;20028;-79
2022/08/16 08:47:29;;;;;;;3.20;2.90;;;;;;;37.73;27.95;97503.75;5094479;28;20036;-80
2022/08/16 08:49:55;;;;;;;2.90;2.70;;;;;;;38.08;27.88;97505.63;5095037;28;20095;-79
2022/08/16 08:52:22;;;;;;;2.47;2.28;;;;;;;38.50;27.91;97512.53;5095453;28;20392;-80
2022/08/16 08:54:48;;;;;;;2.38;2.22;;;;;;;38.27;29.27;97505.59;5094963;28;20039;-80
2022/08/16 08:57:14;;;;;;;2.78;2.58;;;;;;;38.59;27.66;97504.28;5095110;28;20032;-78
2022/08/16 08:59:40;;;;;;;2.38;2.28;;;;;;;39.15;27.53;97511.91;5094666;28;20036;-80
2022/08/16 09:02:07;;;;;;;2.58;2.38;;;;;;;39.66;27.58;97521.84;5094063;28;20131;-79
2022/08/16 09:04:34;;;;;;;2.50;2.30;;;;;;;39.85;25.54;97519.63;5093268;28;20039;-79
2022/08/16 09:07:00;;;;;;;2.63;2.42;;;;;;;39.81;26.36;97521.28;5093311;28;20028;-80
2022/08/16 09:09:26;;;;;;;2.50;2.17;;;;;;;39.75;26.50;97526.38;5095119;28;20036;-79
2022/08/16 09:11:55;;;;;;;2.10;2.00;;;;;;;39.29;29.25;97522.88;5094712;28;20035;-80
2022/08/16 09:14:21;;;;;;;2.55;2.17;;;;;;;38.84;25.02;97513.50;5094701;28;20036;-80
2022/08/16 09:16:49;;;;;;;2.25;2.15;;;;;;;39.30;26.87;97512.16;5092269;28;20479;-80
2022/08/16 09:19:15;;;;;;;2.30;2.05;;;;;;;39.50;27.35;97522.19;5094256;28;20030;-80
2022/08/16 09:21:41;;;;;;;2.15;2.05;;;;;;;39.88;25.85;97509.88;5094417;28;20081;-80
2022/08/16 09:24:07;;;;;;;3.95;2.97;;;;;;;39.61;26.35;97519.13;5089836;28;20093;-81
2022/08/16 09:26:34;;;;;;;2.75;2.50;;;;;;;39.49;25.34;97512.03;5088732;28;20024;-80
2022/08/16 09:29:00;;;;;;;2.97;2.63;;;;;;;39.05;30.25;97510.78;5090943;28;20036;-81
2022/08/16 09:31:26;;;;;;;3.28;2.60;;;;;;;39.02;30.13;97506.16;5090808;28;20098;-82
2022/08/16 09:33:52;;;;;;;3.20;2.58;;;;;;;38.82;26.33;97510.44;5086257;28;20025;-80
2022/08/16 09:36:19;;;;;;;2.70;2.50;;;;;;;38.72;28.81;97517.91;5088990;28;20089;-81
2022/08/16 09:38:45;;;;;;;3.50;2.50;;;;;;;39.06;26.74;97510.25;5091318;28;20451;-80
2022/08/16 09:41:12;;;;;;;3.00;2.80;;;;;;;38.21;29.59;97520.00;5089623;28;20040;-81
2022/08/16 09:43:38;;;;;;;3.00;2.70;;;;;;;38.55;27.41;97529.66;5091848;28;20020;-80
2022/08/16 09:46:06;;;;;;;3.25;2.95;;;;;;;38.73;30.43;97516.59;5094095;28;20031;-80
2022/08/16 09:48:33;;;;;;;3.05;2.67;;;;;;;38.50;27.03;97519.06;5093874;28;20043;-81
2022/08/16 09:50:59;;;;;;;2.83;2.63;;;;;;;39.17;26.67;97510.03;5094051;28;20101;-80
2022/08/16 09:53:28;;;;;;;3.15;2.67;;;;;;;39.69;25.31;97515.00;5093771;28;20111;-80
2022/08/16 09:55:57;;;;;;;2.80;2.60;;;;;;;40.10;26.23;97520.09;5094038;28;20032;-80
2022/08/16 09:58:25;;;;;;;2.80;2.60;;;;;;;40.42;24.41;97519.88;5093330;28;20059;-81
2022/08/16 10:00:53;;;;;;;2.78;2.58;;;;;;;40.18;26.00;97518.09;5093032;28;21514;-81
2022/08/16 10:03:20;;;;;;;3.15;2.72;;;;;;;40.20;25.72;97517.53;5093448;28;20020;-81
2022/08/16 10:05:47;;;;;;;2.53;2.33;;;;;;;40.22;25.24;97518.53;5092804;28;20032;-80
2022/08/16 10:08:15;;;;;;;2.70;2.50;;;;;;;40.18;27.16;97517.31;5093578;28;20097;-80
2022/08/16 10:13:10;;;;;;;2.58;2.38;;;;;;;39.65;27.89;97522.44;5093738;28;20031;-80
2022/08/16 10:13:29;;;;;;;2.70;2.50;;;;;;;40.02;24.57;97516.41;5093597;28;20036;-80
2022/08/16 10:15:58;;;;;;;3.00;2.80;;;;;;;40.34;25.78;97521.91;5093338;28;20039;-80
2022/08/16 10:18:26;;;;;;;2.22;2.13;;;;;;;40.47;24.96;97519.00;5093031;28;20039;-80
2022/08/16 10:20:54;;;;;;;2.55;2.35;;;;;;;40.94;25.47;97525.38;5090092;28;20404;-82
2022/08/16 10:23:21;;;;;;;2.83;2.60;;;;;;;40.77;27.41;97525.03;5089417;28;20111;-81
2022/08/16 10:25:47;;;;;;;2.97;2.78;;;;;;;40.81;25.02;97531.22;5092105;28;20047;-81
2022/08/16 10:28:14;;;;;;;3.65;2.55;;;;;;;41.21;25.58;97525.97;5086771;28;20043;-81
2022/08/16 10:30:42;;;;;;;2.80;2.40;;;;;;;41.70;24.72;97518.03;5089561;28;20060;-84
2022/08/16 10:33:10;;;;;;;2.33;2.13;;;;;;;41.58;26.30;97524.66;5088775;28;20073;-82
2022/08/16 10:35:36;;;;;;;3.00;2.78;;;;;;;40.85;24.07;97523.00;5089783;28;20028;-81
2022/08/16 10:38:03;;;;;;;3.13;2.92;;;;;;;40.19;32.60;97522.50;5088393;28;20047;-80
2022/08/16 10:40:29;;;;;;;3.80;3.50;;;;;;;39.90;25.87;97520.81;5090974;28;20117;-79
2022/08/16 10:42:59;;;;;;;3.30;3.10;;;;;;;40.81;26.67;97519.69;5089385;28;20035;-81
2022/08/16 10:45:27;;;;;;;3.25;3.05;;;;;;;40.62;26.90;97517.03;5088496;28;20122;-81
2022/08/16 10:47:55;;;;;;;3.90;3.20;;;;;;;41.11;24.33;97511.31;5089881;28;20032;-81
2022/08/16 10:50:21;;;;;;;3.53;3.28;;;;;;;40.80;25.81;97515.25;5088414;28;20072;-82
2022/08/16 10:52:47;;;;;;;3.50;3.20;;;;;;;40.19;25.90;97508.13;5090466;28;20491;-81
2022/08/16 10:55:14;;;;;;;5.03;4.38;;;;;;;38.85;31.73;97508.56;5105607;28;20541;-81
2022/08/16 10:57:41;;;;;;;4.40;3.60;;;;;;;38.95;32.32;97503.94;5090624;28;20024;-82
2022/08/16 11:00:11;;;;;;;4.32;3.97;;;;;;;39.46;31.39;97505.28;5089763;28;20115;-81
2022/08/16 11:02:38;;;;;;;4.78;4.10;;;;;;;38.47;32.07;97505.00;5089768;28;20090;-81
2022/08/16 11:05:05;;;;;;;4.88;4.40;;;;;;;38.74;28.97;97506.66;5088409;28;20079;-84
2022/08/16 11:07:32;;;;;;;4.60;3.92;;;;;;;38.99;29.12;97498.63;5090222;28;20115;-81
2022/08/16 11:10:00;;;;;;;4.30;4.00;;;;;;;37.84;31.82;97494.25;5089533;28;20039;-79
2022/08/16 11:12:27;;;;;;;6.72;4.85;;;;;;;37.55;32.15;97480.84;5089859;28;20410;-80
2022/08/16 11:14:53;;;;;;;4.95;4.55;;;;;;;39.04;28.77;97489.91;5082589;28;20484;-80
2022/08/16 11:17:19;;;;;;;4.88;4.45;;;;;;;40.14;26.98;97488.13;5085921;28;20032;-80
2022/08/16 11:19:46;;;;;;;4.18;3.83;;;;;;;39.76;27.84;97479.84;5087917;28;20131;-81
2022/08/16 11:22:12;;;;;;;4.22;3.83;;;;;;;40.92;26.83;97486.94;5089839;28;20496;-83
2022/08/16 11:24:39;;;;;;;5.38;4.80;;;;;;;40.16;28.80;97492.00;5090089;28;20560;-81
2022/08/16 11:27:16;;;;;;;3.70;3.40;;;;;;;40.24;28.40;97484.19;5088795;28;20123;-82
2022/08/16 11:29:42;;;;;;;5.32;4.82;;;;;;;39.27;30.72;97487.41;5090392;28;20029;-81
2022/08/16 11:32:09;;;;;;;5.90;5.25;;;;;;;38.43;30.97;97487.34;5088226;28;20043;-80
2022/08/16 11:34:35;;;;;;;4.97;4.53;;;;;;;37.75;31.02;97494.59;5088081;28;20107;-81